Salida, CO

12:58 AM MDT on August 22, 2014 (GMT -0600)
Maysville, East Slope Monarch Pass | Change Station
CLOSE
Current Station
Personal Weather Station
Location: Salida, CO
Elevation: 8397 ft
Nearby Weather Stations

Elev 8397 ft 38.54 °N, 106.19 °W | Updated 2 seconds ago

Overcast
Overcast
60.5 °F
Feels Like 60.5 °F
N
7.0
Wind Variable Wind from WNW
Gusts 9.0 mph

Today
High -- | Low -- °F
--% Chance of Precip.
Yesterday
High -- | Low -- °F
Precip. -- in
6:25 AM 7:49 PM
Waning Crescent, 10% visible
Pressure 30.34 in
Visibility 10.0 miles
Clouds Overcast 8500 ft
Dew Point 35 °F
Humidity 38%
Rainfall 0.00 in
Snow Depth Not available.
UV 0 out of 12
Pollen 9.30 out of 12
Air Quality Not available.
Flu Activity Not available.
METAR KANK 220635Z AUTO 00000KT 10SM OVC085 19/04 A3034 RMK AO1 T01870044

More Conditions Fewer Conditions

Pressure 30.34 in
Visibility 10.0 miles
Clouds Overcast 8500 ft
Dew Point 35 °F
Humidity 38%
Rainfall 0.00 in
Snow Depth Not available.
UV 0 out of 12
Pollen 9.30 out of 12
Air Quality Not available.
Flu Activity Not available.
METAR KANK 220635Z AUTO 00000KT 10SM OVC085 19/04 A3034 RMK AO1 T01870044

More Conditions Fewer Conditions

10-Day Weather Forecast

Almanac

Astronomy

Aug. 22, 2014 Rise Set
Actual Time 6:25 AM MDT 7:49 PM MDT
Civil Twilight 5:57 AM MDT 8:17 PM MDT
Nautical Twilight 5:24 AM MDT 8:50 PM MDT
Astronomical Twilight 4:49 AM MDT 9:25 PM MDT
Moon 3:51 AM MDT 5:58 PM MDT
Length of Visible Light 14h 19m
Length of Day
13h 24m
Tomorrow will be 2m 18s shorter.
Waning Crescent, 10% of the Moon is Illuminated
Today
Waning Crescent
Aug 25
New
Sep 2
First Quarter
Sep 8
Full
Sep 15
Last Quarter

Today's Extremes

State Highs State Lows

Community

WunderPhotos

Upload Photos

1,746,131 photos uploaded!

Nearby

Snow Depth

Station Depth Elevation
Porphyry Creek 0 in 10760 ft
Park Cone 0 in 9600 ft
Rough And Tumble 1 in 10360 ft
Brumley 0 in 10600 ft
Independence Pass 189 in 10600 ft

Earthquake Activity

City Distance Mag. Time & Date
No recent earthquake activity has been reported nearby.
Minimum magnitude displayed is 2.5.

Coastal Water Temperatures

Place Temperature
No Stations Reporting

Nearby Weather Stations